Time;durP1;ratioP1;P1;durP2;ratioP2;P2;SDS_P1;SDS_P2;PMS_P1;PMS_P2;Temp;Humidity;BMP_temperature;BMP_pressure;BME280_temperature;BME280_humidity;BME280_pressure;Samples;Min_cycle;Max_cycle;Signal;HPM_P1;HPM_P2
2021/01/14 00:00:20;;;;;;;;;;;18.60;35.60;;;;;;491675;240;955;-53
2021/01/14 00:02:22;;;;;;;;;;;18.60;35.60;;;;;;491691;240;1383;-54
2021/01/14 00:04:23;;;;;;;;;;;18.70;35.60;;;;;;491631;240;1200;-54
2021/01/14 00:06:24;;;;;;;;;;;18.70;35.60;;;;;;491605;240;1079;-54
2021/01/14 00:08:25;;;;;;;;;;;18.70;35.60;;;;;;491633;240;1161;-53
2021/01/14 00:10:27;;;;;;;;;;;18.70;35.60;;;;;;491794;240;1174;-54
2021/01/14 00:12:28;;;;;;;;;;;18.70;35.50;;;;;;491710;240;2135;-54
2021/01/14 00:14:29;;;;;;;;;;;18.70;35.50;;;;;;491834;240;1246;-54
2021/01/14 00:16:31;;;;;;;;;;;18.80;35.50;;;;;;491762;240;1046;-54
2021/01/14 00:18:32;;;;;;;;;;;18.80;35.50;;;;;;491744;240;1056;-54
2021/01/14 00:20:33;;;;;;;;;;;18.80;35.50;;;;;;491804;240;1175;-54
2021/01/14 00:22:34;;;;;;;;;;;18.80;35.50;;;;;;491734;240;1057;-54
2021/01/14 00:24:36;;;;;;;;;;;18.80;35.50;;;;;;491625;240;1315;-54
2021/01/14 00:26:37;;;;;;;;;;;18.80;35.40;;;;;;491630;240;1056;-54
2021/01/14 00:28:38;;;;;;;;;;;18.80;35.40;;;;;;491644;240;990;-54
2021/01/14 00:30:40;;;;;;;;;;;18.90;35.40;;;;;;491653;240;1457;-54
2021/01/14 00:32:41;;;;;;;;;;;18.90;35.40;;;;;;491721;240;2141;-54
2021/01/14 00:34:42;;;;;;;;;;;18.90;34.10;;;;;;491737;240;1084;-54
2021/01/14 00:39:03;;;;;;;;;;;18.90;35.40;;;;;;491844;242;1084;-54
2021/01/14 00:41:04;;;;;;;;;;;18.90;35.40;;;;;;491630;240;1314;-54
2021/01/14 00:43:08;;;;;;;;;;;18.90;35.30;;;;;;491629;240;1060;-53
2021/01/14 00:45:07;;;;;;;;;;;18.90;35.30;;;;;;491535;242;2256;-53
2021/01/14 00:47:08;;;;;;;;;;;19.00;35.40;;;;;;491658;240;1292;-54
2021/01/14 00:49:09;;;;;;;;;;;19.00;35.30;;;;;;491733;240;996;-54
2021/01/14 00:51:11;;;;;;;;;;;19.00;35.30;;;;;;491650;240;1054;-54
2021/01/14 00:53:12;;;;;;;;;;;19.00;35.30;;;;;;491674;240;2195;-54
2021/01/14 00:55:13;;;;;;;;;;;19.00;35.30;;;;;;491615;240;1341;-54
2021/01/14 00:57:15;;;;;;;;;;;19.00;35.30;;;;;;491862;240;1054;-54
2021/01/14 00:59:16;;;;;;;;;;;19.00;35.30;;;;;;491717;240;1019;-54
2021/01/14 01:01:17;;;;;;;;;;;19.00;35.30;;;;;;491662;240;1115;-54
2021/01/14 01:03:18;;;;;;;;;;;19.10;35.30;;;;;;491622;240;1033;-54
2021/01/14 01:05:20;;;;;;;;;;;19.10;35.30;;;;;;491866;240;1130;-54
2021/01/14 01:07:21;;;;;;;;;;;19.10;35.20;;;;;;491693;240;1063;-54
2021/01/14 01:09:23;;;;;;;;;;;19.10;35.20;;;;;;491752;240;1100;-54
2021/01/14 01:11:24;;;;;;;;;;;19.10;35.20;;;;;;491640;240;1194;-54
2021/01/14 01:13:25;;;;;;;;;;;19.10;35.20;;;;;;491916;240;2141;-54
2021/01/14 01:15:27;;;;;;;;;;;19.10;35.20;;;;;;491892;240;1086;-54
2021/01/14 01:17:28;;;;;;;;;;;19.10;35.20;;;;;;491669;240;1976;-54
2021/01/14 01:19:29;;;;;;;;;;;19.10;35.20;;;;;;491614;240;1049;-54
2021/01/14 01:21:30;;;;;;;;;;;19.10;35.10;;;;;;491665;240;970;-54
2021/01/14 01:23:31;;;;;;;;;;;19.20;35.20;;;;;;492057;240;1061;-54
2021/01/14 01:25:33;;;;;;;;;;;19.10;35.10;;;;;;491861;240;1185;-54
2021/01/14 01:27:35;;;;;;;;;;;19.20;35.20;;;;;;491699;240;1080;-54
2021/01/14 01:29:36;;;;;;;;;;;19.20;35.20;;;;;;491611;240;980;-54
2021/01/14 01:31:37;;;;;;;;;;;19.20;35.20;;;;;;491552;240;1043;-54
2021/01/14 01:33:38;;;;;;;;;;;19.20;35.10;;;;;;491738;240;2179;-54
2021/01/14 01:35:40;;;;;;;;;;;19.20;35.10;;;;;;491691;240;1065;-53
2021/01/14 01:37:41;;;;;;;;;;;19.20;35.10;;;;;;491697;240;1022;-54
2021/01/14 01:39:42;;;;;;;;;;;19.30;35.10;;;;;;491787;240;1040;-54
2021/01/14 01:41:45;;;;;;;;;;;19.30;35.10;;;;;;491720;240;1156;-54
2021/01/14 01:43:47;;;;;;;;;;;19.30;35.10;;;;;;491779;240;1180;-54
2021/01/14 01:45:48;;;;;;;;;;;19.30;35.10;;;;;;491714;240;1018;-53
2021/01/14 01:47:50;;;;;;;;;;;19.30;35.10;;;;;;491646;240;1033;-54
2021/01/14 01:49:51;;;;;;;;;;;19.30;35.10;;;;;;491793;240;1046;-54
2021/01/14 01:51:52;;;;;;;;;;;19.30;35.00;;;;;;491772;240;986;-54
2021/01/14 01:53:54;;;;;;;;;;;19.30;35.10;;;;;;491951;240;2148;-54
2021/01/14 01:55:55;;;;;;;;;;;19.30;35.10;;;;;;491871;240;1158;-53
2021/01/14 01:57:56;;;;;;;;;;;19.30;35.00;;;;;;491753;240;1251;-54
2021/01/14 01:59:57;;;;;;;;;;;19.30;35.00;;;;;;491678;240;1134;-54
2021/01/14 02:01:59;;;;;;;;;;;19.30;35.00;;;;;;491892;240;1331;-54
2021/01/14 02:04:00;;;;;;;;;;;19.30;35.00;;;;;;491669;240;1200;-53
2021/01/14 02:06:01;;;;;;;;;;;19.40;35.00;;;;;;491637;240;1124;-54
2021/01/14 02:08:02;;;;;;;;;;;19.40;35.00;;;;;;491666;240;1318;-54
2021/01/14 02:10:04;;;;;;;;;;;19.30;35.00;;;;;;491608;240;1109;-53
2021/01/14 02:12:05;;;;;;;;;;;19.40;35.00;;;;;;491616;240;1179;-54
2021/01/14 02:14:07;;;;;;;;;;;19.40;35.00;;;;;;491648;240;2180;-54
2021/01/14 02:16:08;;;;;;;;;;;19.40;35.00;;;;;;491663;240;962;-53
2021/01/14 02:18:09;;;;;;;;;;;19.40;35.00;;;;;;491914;240;966;-54
2021/01/14 02:20:10;;;;;;;;;;;19.40;35.00;;;;;;491731;240;1082;-54
2021/01/14 02:22:12;;;;;;;;;;;19.40;35.00;;;;;;491744;240;1013;-54
2021/01/14 02:24:13;;;;;;;;;;;19.40;34.90;;;;;;491682;240;991;-54
2021/01/14 02:26:14;;;;;;;;;;;19.40;35.00;;;;;;491623;240;1188;-54
2021/01/14 02:28:16;;;;;;;;;;;19.40;35.00;;;;;;491732;240;1042;-54
2021/01/14 02:30:17;;;;;;;;;;;19.40;35.00;;;;;;491659;240;1226;-53
2021/01/14 02:32:18;;;;;;;;;;;19.40;34.90;;;;;;491578;240;1099;-54
2021/01/14 02:34:20;;;;;;;;;;;19.40;34.90;;;;;;491688;240;2188;-54
2021/01/14 02:36:21;;;;;;;;;;;19.50;35.00;;;;;;491724;240;1073;-54
2021/01/14 02:38:22;;;;;;;;;;;19.40;34.90;;;;;;491688;240;956;-54
2021/01/14 02:40:23;;;;;;;;;;;19.50;34.90;;;;;;491669;240;957;-54
2021/01/14 02:42:25;;;;;;;;;;;19.50;34.90;;;;;;491640;240;1201;-53
2021/01/14 02:44:26;;;;;;;;;;;19.50;34.90;;;;;;491904;240;1038;-54
2021/01/14 02:46:27;;;;;;;;;;;19.50;34.90;;;;;;491605;240;1258;-54
2021/01/14 02:48:29;;;;;;;;;;;19.50;34.90;;;;;;491846;240;1108;-54
2021/01/14 02:50:30;;;;;;;;;;;19.60;34.90;;;;;;491965;240;1027;-54
2021/01/14 02:52:31;;;;;;;;;;;19.50;34.80;;;;;;491657;240;1093;-54
2021/01/14 02:54:33;;;;;;;;;;;19.50;34.90;;;;;;491755;240;2136;-54
2021/01/14 02:56:34;;;;;;;;;;;19.50;34.90;;;;;;491525;240;1295;-54
2021/01/14 02:58:35;;;;;;;;;;;19.60;34.90;;;;;;491728;240;928;-54
2021/01/14 03:00:37;;;;;;;;;;;19.50;34.80;;;;;;491619;240;1001;-53
2021/01/14 03:02:38;;;;;;;;;;;19.50;34.80;;;;;;491826;240;1143;-54
2021/01/14 03:04:39;;;;;;;;;;;19.50;34.80;;;;;;491805;240;979;-54
2021/01/14 03:06:40;;;;;;;;;;;19.50;34.80;;;;;;491501;240;1009;-54
2021/01/14 03:08:42;;;;;;;;;;;19.50;34.80;;;;;;491638;240;1051;-53
2021/01/14 03:10:43;;;;;;;;;;;19.60;34.90;;;;;;491620;240;952;-54
2021/01/14 03:12:44;;;;;;;;;;;19.60;34.80;;;;;;491591;240;1287;-54
2021/01/14 03:14:45;;;;;;;;;;;19.60;34.80;;;;;;491798;240;2149;-54
2021/01/14 03:16:47;;;;;;;;;;;19.60;34.80;;;;;;491782;240;1052;-54
2021/01/14 03:18:48;;;;;;;;;;;19.60;34.90;;;;;;491693;240;1071;-54
2021/01/14 03:20:50;;;;;;;;;;;19.60;34.90;;;;;;491642;240;1090;-54
2021/01/14 03:22:51;;;;;;;;;;;19.60;34.90;;;;;;491671;240;1053;-54
2021/01/14 03:24:52;;;;;;;;;;;19.60;34.90;;;;;;491644;240;995;-54
2021/01/14 03:26:53;;;;;;;;;;;19.60;34.80;;;;;;491675;240;1511;-53
2021/01/14 03:28:55;;;;;;;;;;;19.60;34.80;;;;;;491651;240;1067;-54
2021/01/14 03:30:56;;;;;;;;;;;19.60;33.50;;;;;;491762;240;1043;-54
2021/01/14 03:32:57;;;;;;;;;;;19.60;34.80;;;;;;491742;240;1143;-54
2021/01/14 03:34:58;;;;;;;;;;;19.60;34.80;;;;;;491708;240;2128;-54
2021/01/14 03:37:01;;;;;;;;;;;19.70;34.80;;;;;;491631;240;1053;-54
2021/01/14 03:39:02;;;;;;;;;;;19.70;34.80;;;;;;491663;240;1020;-54
2021/01/14 03:41:03;;;;;;;;;;;19.60;34.70;;;;;;491758;240;987;-54
2021/01/14 03:43:04;;;;;;;;;;;19.70;34.80;;;;;;491762;240;1062;-54
2021/01/14 03:45:06;;;;;;;;;;;19.70;34.80;;;;;;491650;240;981;-54
2021/01/14 03:47:07;;;;;;;;;;;19.60;34.70;;;;;;491656;240;1055;-54
2021/01/14 03:49:08;;;;;;;;;;;19.60;34.80;;;;;;491572;240;1074;-54
2021/01/14 03:51:10;;;;;;;;;;;19.70;34.80;;;;;;491745;240;1118;-54
2021/01/14 03:53:11;;;;;;;;;;;19.70;34.80;;;;;;491778;240;1026;-54
2021/01/14 03:55:12;;;;;;;;;;;19.70;34.80;;;;;;491860;240;2184;-54
2021/01/14 03:57:13;;;;;;;;;;;19.70;34.80;;;;;;491739;240;1103;-53
2021/01/14 03:59:15;;;;;;;;;;;19.70;34.80;;;;;;491700;240;985;-54
2021/01/14 04:01:16;;;;;;;;;;;19.70;34.70;;;;;;491724;240;1026;-53
2021/01/14 04:03:17;;;;;;;;;;;19.70;34.70;;;;;;491669;240;1221;-54
2021/01/14 04:05:18;;;;;;;;;;;19.70;34.80;;;;;;491622;240;960;-54
2021/01/14 04:07:20;;;;;;;;;;;19.70;34.70;;;;;;491693;240;1173;-54
2021/01/14 04:09:21;;;;;;;;;;;19.70;34.70;;;;;;491674;240;1111;-54
2021/01/14 04:11:22;;;;;;;;;;;19.70;34.70;;;;;;491686;240;975;-54
2021/01/14 04:13:24;;;;;;;;;;;19.80;34.70;;;;;;491763;240;1190;-54
2021/01/14 04:15:25;;;;;;;;;;;19.80;34.70;;;;;;491648;240;2179;-54
2021/01/14 04:17:26;;;;;;;;;;;19.70;34.70;;;;;;491591;240;1256;-54
2021/01/14 04:19:27;;;;;;;;;;;19.80;34.70;;;;;;491643;240;967;-54
2021/01/14 04:21:29;;;;;;;;;;;19.70;34.70;;;;;;491743;240;1046;-53
2021/01/14 04:23:30;;;;;;;;;;;19.80;34.70;;;;;;491592;240;1007;-54
2021/01/14 04:25:31;;;;;;;;;;;19.70;34.70;;;;;;491855;240;1062;-54
2021/01/14 04:27:32;;;;;;;;;;;19.80;34.70;;;;;;491597;239;1329;-54
2021/01/14 04:29:34;;;;;;;;;;;19.80;34.70;;;;;;491561;240;1094;-53
2021/01/14 04:31:35;;;;;;;;;;;19.80;34.70;;;;;;491629;240;1831;-54
2021/01/14 04:33:36;;;;;;;;;;;19.80;34.70;;;;;;491606;240;1079;-54
2021/01/14 04:35:38;;;;;;;;;;;19.80;34.70;;;;;;491586;240;2195;-54
2021/01/14 04:37:39;;;;;;;;;;;19.80;34.70;;;;;;491589;240;993;-54
2021/01/14 04:39:40;;;;;;;;;;;19.80;34.70;;;;;;491691;240;1063;-53
2021/01/14 04:41:41;;;;;;;;;;;19.80;34.70;;;;;;491479;240;1225;-54
2021/01/14 04:43:43;;;;;;;;;;;19.80;34.70;;;;;;491672;240;1186;-54
2021/01/14 04:45:44;;;;;;;;;;;19.80;34.70;;;;;;491525;240;1467;-54
2021/01/14 04:47:45;;;;;;;;;;;19.80;34.70;;;;;;491639;240;981;-54
2021/01/14 04:49:46;;;;;;;;;;;19.80;34.60;;;;;;491649;240;1058;-53
2021/01/14 04:51:48;;;;;;;;;;;19.80;34.70;;;;;;491545;240;1169;-54
2021/01/14 04:53:49;;;;;;;;;;;19.80;34.70;;;;;;491655;240;944;-54
2021/01/14 04:55:51;;;;;;;;;;;19.80;34.70;;;;;;491602;240;1320;-54
2021/01/14 04:57:52;;;;;;;;;;;19.90;34.70;;;;;;491582;240;2007;-54
2021/01/14 04:59:53;;;;;;;;;;;19.80;34.70;;;;;;491724;240;946;-54
2021/01/14 05:01:54;;;;;;;;;;;19.80;34.60;;;;;;491574;240;1377;-54
2021/01/14 05:03:57;;;;;;;;;;;19.80;34.60;;;;;;491618;240;1046;-53
2021/01/14 05:05:57;;;;;;;;;;;19.80;34.60;;;;;;491511;240;1885;-54
2021/01/14 05:07:59;;;;;;;;;;;19.90;34.70;;;;;;491666;240;1004;-54
2021/01/14 05:10:00;;;;;;;;;;;19.90;34.70;;;;;;491651;240;1044;-54
2021/01/14 05:12:01;;;;;;;;;;;19.90;34.70;;;;;;491753;240;1057;-54
2021/01/14 05:14:02;;;;;;;;;;;19.90;34.70;;;;;;491606;240;2200;-53
2021/01/14 05:16:04;;;;;;;;;;;19.90;34.60;;;;;;491618;240;1062;-54
2021/01/14 05:18:05;;;;;;;;;;;19.90;34.70;;;;;;491898;240;2246;-54
2021/01/14 05:20:06;;;;;;;;;;;19.90;34.60;;;;;;491767;240;1081;-54
2021/01/14 05:22:07;;;;;;;;;;;19.90;34.60;;;;;;491627;240;1061;-54
2021/01/14 05:24:09;;;;;;;;;;;19.90;34.60;;;;;;491586;240;1022;-54
2021/01/14 05:26:10;;;;;;;;;;;19.90;34.60;;;;;;491610;240;1103;-53
2021/01/14 05:28:11;;;;;;;;;;;19.90;34.60;;;;;;491622;240;1287;-54
2021/01/14 05:30:13;;;;;;;;;;;19.90;34.60;;;;;;491557;240;982;-53
2021/01/14 05:32:14;;;;;;;;;;;19.90;34.60;;;;;;491423;240;1056;-54
2021/01/14 05:34:15;;;;;;;;;;;19.90;34.60;;;;;;491441;240;2156;-54
2021/01/14 05:36:16;;;;;;;;;;;19.90;34.60;;;;;;491557;240;1031;-54
2021/01/14 05:38:18;;;;;;;;;;;19.90;34.60;;;;;;491443;240;1106;-54
2021/01/14 05:40:19;;;;;;;;;;;19.90;34.60;;;;;;491422;240;1102;-54
2021/01/14 05:42:20;;;;;;;;;;;19.90;34.60;;;;;;491537;240;1066;-54
2021/01/14 05:44:22;;;;;;;;;;;20.00;34.90;;;;;;491515;240;1185;-54
2021/01/14 05:46:23;;;;;;;;;;;20.00;34.70;;;;;;491492;240;1034;-54
2021/01/14 05:48:24;;;;;;;;;;;20.00;34.50;;;;;;491550;240;1186;-54
2021/01/14 05:50:25;;;;;;;;;;;20.00;34.50;;;;;;491575;240;1052;-53
2021/01/14 05:52:27;;;;;;;;;;;20.00;34.50;;;;;;491535;240;1099;-53
2021/01/14 05:54:28;;;;;;;;;;;19.90;34.50;;;;;;491478;240;2145;-53
2021/01/14 05:56:29;;;;;;;;;;;19.90;34.60;;;;;;491356;240;1070;-53
2021/01/14 05:58:30;;;;;;;;;;;19.90;33.40;;;;;;491440;240;1442;-54
2021/01/14 06:00:32;;;;;;;;;;;19.90;34.80;;;;;;491721;240;1030;-54
2021/01/14 06:02:33;;;;;;;;;;;19.80;34.80;;;;;;491446;240;1022;-54
2021/01/14 06:04:34;;;;;;;;;;;19.80;34.80;;;;;;491513;240;1110;-54
2021/01/14 06:06:36;;;;;;;;;;;19.70;34.90;;;;;;491504;240;1079;-54
2021/01/14 06:08:37;;;;;;;;;;;19.80;35.00;;;;;;491361;240;1230;-54
2021/01/14 06:10:39;;;;;;;;;;;19.70;33.70;;;;;;491335;240;1151;-53
2021/01/14 06:12:39;;;;;;;;;;;19.60;35.00;;;;;;491455;240;2067;-54
2021/01/14 06:14:41;;;;;;;;;;;19.60;35.10;;;;;;491370;240;2200;-54
2021/01/14 06:16:42;;;;;;;;;;;19.50;35.10;;;;;;491387;240;993;-54
2021/01/14 06:18:43;;;;;;;;;;;19.60;35.20;;;;;;491299;240;1081;-54
2021/01/14 06:20:44;;;;;;;;;;;19.50;35.10;;;;;;491277;240;1064;-54
2021/01/14 06:22:46;;;;;;;;;;;19.50;33.90;;;;;;491427;240;1042;-54
2021/01/14 06:24:47;;;;;;;;;;;19.50;35.30;;;;;;491371;240;1139;-54
2021/01/14 06:26:48;;;;;;;;;;;19.40;34.00;;;;;;491314;240;1179;-54
2021/01/14 06:28:49;;;;;;;;;;;19.40;35.30;;;;;;491401;240;1066;-53
2021/01/14 06:30:51;;;;;;;;;;;19.40;35.40;;;;;;491292;240;1039;-54
2021/01/14 06:32:52;;;;;;;;;;;19.40;34.10;;;;;;491249;240;990;-54
2021/01/14 06:34:53;;;;;;;;;;;19.40;35.50;;;;;;491358;240;2124;-53
2021/01/14 06:36:55;;;;;;;;;;;19.30;35.40;;;;;;491334;240;1070;-54
2021/01/14 06:38:56;;;;;;;;;;;19.30;35.50;;;;;;491414;240;1408;-54
2021/01/14 06:40:57;;;;;;;;;;;19.30;35.60;;;;;;491395;240;1290;-54
2021/01/14 06:43:00;;;;;;;;;;;19.20;35.60;;;;;;491336;240;1028;-54
2021/01/14 06:45:00;;;;;;;;;;;19.20;35.60;;;;;;491316;241;1712;-54
2021/01/14 06:47:01;;;;;;;;;;;19.20;35.60;;;;;;491302;240;1214;-54
2021/01/14 06:49:02;;;;;;;;;;;19.20;35.60;;;;;;491072;240;1227;-53
2021/01/14 06:51:04;;;;;;;;;;;19.20;35.70;;;;;;491149;240;1081;-53
2021/01/14 06:53:05;;;;;;;;;;;19.20;35.70;;;;;;491185;240;1070;-54
2021/01/14 06:55:06;;;;;;;;;;;19.10;34.40;;;;;;491261;240;2187;-54
2021/01/14 06:57:08;;;;;;;;;;;19.10;35.70;;;;;;491194;240;1107;-53
2021/01/14 06:59:09;;;;;;;;;;;19.10;35.70;;;;;;491144;240;1151;-54
2021/01/14 07:01:10;;;;;;;;;;;19.10;35.70;;;;;;491171;240;1158;-53
2021/01/14 07:03:11;;;;;;;;;;;19.10;35.70;;;;;;491196;240;1222;-53
2021/01/14 07:05:13;;;;;;;;;;;19.10;35.80;;;;;;491192;240;1041;-54
2021/01/14 07:07:14;;;;;;;;;;;19.00;35.80;;;;;;491221;240;1043;-54
2021/01/14 07:09:15;;;;;;;;;;;19.00;35.80;;;;;;491128;240;1058;-53
2021/01/14 07:11:16;;;;;;;;;;;19.00;35.80;;;;;;491160;240;1145;-53
2021/01/14 07:13:18;;;;;;;;;;;19.00;35.80;;;;;;491214;240;1059;-54
2021/01/14 07:15:19;;;;;;;;;;;19.00;34.50;;;;;;491229;240;2217;-54
2021/01/14 07:17:21;;;;;;;;;;;19.00;35.90;;;;;;491188;240;1194;-53
2021/01/14 07:19:22;;;;;;;;;;;18.90;35.90;;;;;;491076;240;1102;-53
2021/01/14 07:21:23;;;;;;;;;;;18.90;35.90;;;;;;491037;240;1024;-53
2021/01/14 07:23:24;;;;;;;;;;;18.90;35.90;;;;;;491221;240;1137;-54
2021/01/14 07:25:26;;;;;;;;;;;18.90;35.90;;;;;;491206;240;1052;-53
2021/01/14 07:27:27;;;;;;;;;;;18.90;35.90;;;;;;491176;240;1223;-54
2021/01/14 07:29:29;;;;;;;;;;;18.90;36.00;;;;;;491202;240;1137;-54
2021/01/14 07:31:29;;;;;;;;;;;18.90;36.00;;;;;;491136;240;1953;-54
2021/01/14 07:33:31;;;;;;;;;;;18.90;34.70;;;;;;491173;240;1149;-54
2021/01/14 07:35:32;;;;;;;;;;;18.90;36.00;;;;;;491196;240;2196;-53
2021/01/14 07:37:33;;;;;;;;;;;18.90;36.00;;;;;;491184;240;1305;-53
2021/01/14 07:39:35;;;;;;;;;;;18.80;36.00;;;;;;491190;240;1119;-53
2021/01/14 07:41:36;;;;;;;;;;;18.80;36.00;;;;;;491086;240;1238;-53
2021/01/14 07:43:37;;;;;;;;;;;18.80;34.70;;;;;;490951;240;1078;-53
2021/01/14 07:45:38;;;;;;;;;;;18.80;36.10;;;;;;490885;240;1174;-53
2021/01/14 07:47:40;;;;;;;;;;;18.80;34.80;;;;;;490978;240;1087;-54
2021/01/14 07:49:41;;;;;;;;;;;18.80;34.80;;;;;;491011;240;1166;-54
2021/01/14 07:51:42;;;;;;;;;;;18.80;36.10;;;;;;490998;240;1217;-53
2021/01/14 07:53:45;;;;;;;;;;;18.80;34.80;;;;;;491025;240;1077;-53
2021/01/14 07:55:45;;;;;;;;;;;18.80;36.10;;;;;;490923;240;2343;-54
2021/01/14 07:57:47;;;;;;;;;;;18.80;36.10;;;;;;491027;240;1049;-54
2021/01/14 07:59:53;;;;;;;;;;;18.70;36.10;;;;;;490985;240;1044;-53
2021/01/14 08:01:49;;;;;;;;;;;18.70;36.10;;;;;;490951;241;1400;-54
2021/01/14 08:03:52;;;;;;;;;;;18.70;36.10;;;;;;490907;240;1345;-54
2021/01/14 08:05:56;;;;;;;;;;;18.70;36.10;;;;;;490918;240;1179;-53
2021/01/14 08:07:57;;;;;;;;;;;18.70;36.10;;;;;;491006;240;1137;-54
2021/01/14 08:10:02;;;;;;;;;;;18.70;36.10;;;;;;490997;240;1343;-54
2021/01/14 08:12:00;;;;;;;;;;;18.70;36.10;;;;;;490903;242;2345;-54
2021/01/14 08:14:02;;;;;;;;;;;18.70;36.20;;;;;;490835;240;1035;-53
2021/01/14 08:16:03;;;;;;;;;;;18.70;34.90;;;;;;490879;240;2242;-53
2021/01/14 08:18:04;;;;;;;;;;;18.70;36.20;;;;;;490947;240;1080;-54
2021/01/14 08:20:06;;;;;;;;;;;18.70;36.20;;;;;;490962;240;1103;-54
2021/01/14 08:22:07;;;;;;;;;;;18.70;36.20;;;;;;490903;240;1080;-53
2021/01/14 08:24:08;;;;;;;;;;;18.70;34.90;;;;;;490990;240;1041;-53
2021/01/14 08:26:11;;;;;;;;;;;18.60;36.30;;;;;;491035;240;1079;-53
2021/01/14 08:28:11;;;;;;;;;;;18.60;36.20;;;;;;490981;240;1318;-54
2021/01/14 08:30:13;;;;;;;;;;;18.60;36.20;;;;;;490930;240;1353;-53
2021/01/14 08:32:14;;;;;;;;;;;18.60;36.20;;;;;;490895;240;1179;-53
2021/01/14 08:34:15;;;;;;;;;;;18.60;36.30;;;;;;490701;240;1206;-54
2021/01/14 08:36:17;;;;;;;;;;;18.60;36.20;;;;;;490658;240;2171;-53
2021/01/14 08:38:18;;;;;;;;;;;18.60;36.20;;;;;;490786;241;1294;-53
2021/01/14 08:40:19;;;;;;;;;;;18.60;36.20;;;;;;490937;240;1226;-53
2021/01/14 08:42:21;;;;;;;;;;;18.60;36.20;;;;;;490812;240;1039;-53
2021/01/14 08:44:23;;;;;;;;;;;18.60;36.20;;;;;;490879;240;1144;-54
2021/01/14 08:46:23;;;;;;;;;;;18.60;36.20;;;;;;490865;241;1226;-53
2021/01/14 08:48:25;;;;;;;;;;;18.50;36.20;;;;;;490831;240;1073;-53
2021/01/14 08:50:26;;;;;;;;;;;18.60;35.00;;;;;;490782;240;1269;-53
2021/01/14 08:52:27;;;;;;;;;;;18.60;36.30;;;;;;490871;240;1288;-53
2021/01/14 08:54:28;;;;;;;;;;;18.60;36.30;;;;;;490900;240;1179;-54
2021/01/14 08:56:30;;;;;;;;;;;18.60;35.00;;;;;;490932;240;2182;-53
2021/01/14 08:58:31;;;;;;;;;;;18.50;36.30;;;;;;490955;240;1193;-54
2021/01/14 09:00:33;;;;;;;;;;;18.50;34.90;;;;;;490942;240;1292;-53
2021/01/14 09:02:34;;;;;;;;;;;18.60;36.30;;;;;;490921;240;1325;-53
2021/01/14 09:04:35;;;;;;;;;;;18.50;36.30;;;;;;491015;240;1095;-53
2021/01/14 09:06:38;;;;;;;;;;;18.50;36.30;;;;;;490964;240;1607;-53
2021/01/14 09:08:39;;;;;;;;;;;18.50;35.00;;;;;;490897;240;1210;-54
2021/01/14 09:10:40;;;;;;;;;;;18.50;36.30;;;;;;490814;240;1088;-54
2021/01/14 09:12:42;;;;;;;;;;;18.50;36.30;;;;;;490918;240;1320;-53
2021/01/14 09:14:43;;;;;;;;;;;18.50;36.30;;;;;;490818;240;1150;-53
2021/01/14 09:16:45;;;;;;;;;;;18.50;36.30;;;;;;490758;240;2183;-53
2021/01/14 09:18:46;;;;;;;;;;;18.50;36.30;;;;;;490576;240;1073;-53
2021/01/14 09:20:47;;;;;;;;;;;18.50;36.30;;;;;;490712;240;1090;-53
2021/01/14 09:22:48;;;;;;;;;;;18.50;36.30;;;;;;490717;240;1106;-53
2021/01/14 09:24:49;;;;;;;;;;;18.50;36.30;;;;;;490849;240;1063;-54
2021/01/14 09:26:51;;;;;;;;;;;18.50;36.30;;;;;;490938;240;1064;-53
2021/01/14 09:28:52;;;;;;;;;;;18.50;36.30;;;;;;491065;240;1105;-53
2021/01/14 09:30:53;;;;;;;;;;;18.50;36.30;;;;;;490957;240;1037;-53
2021/01/14 09:32:55;;;;;;;;;;;18.40;36.30;;;;;;490940;240;1175;-53
2021/01/14 09:34:56;;;;;;;;;;;18.50;36.30;;;;;;490972;240;1068;-54
2021/01/14 09:36:57;;;;;;;;;;;18.40;36.30;;;;;;490910;240;2189;-54
2021/01/14 09:38:59;;;;;;;;;;;18.40;35.00;;;;;;490953;240;1025;-52
2021/01/14 09:41:00;;;;;;;;;;;18.40;36.30;;;;;;490823;240;1064;-53
2021/01/14 09:43:01;;;;;;;;;;;18.40;36.30;;;;;;490890;240;1062;-54
2021/01/14 09:45:03;;;;;;;;;;;18.40;35.00;;;;;;490933;240;1081;-54
2021/01/14 09:47:04;;;;;;;;;;;18.40;36.30;;;;;;490864;240;1163;-54
2021/01/14 09:49:06;;;;;;;;;;;18.40;35.00;;;;;;490837;240;1045;-54
2021/01/14 09:51:07;;;;;;;;;;;18.40;36.30;;;;;;490877;240;1040;-53
2021/01/14 09:53:08;;;;;;;;;;;18.40;36.30;;;;;;490908;240;1064;-53
2021/01/14 09:55:10;;;;;;;;;;;18.40;36.30;;;;;;490485;240;1066;-54
2021/01/14 09:57:11;;;;;;;;;;;18.40;36.20;;;;;;490865;240;2192;-54
2021/01/14 09:59:12;;;;;;;;;;;18.40;36.20;;;;;;490739;240;1052;-53
2021/01/14 10:01:14;;;;;;;;;;;18.50;36.20;;;;;;490729;240;1043;-53
2021/01/14 10:03:15;;;;;;;;;;;18.50;34.90;;;;;;490939;240;1181;-53
2021/01/14 10:05:16;;;;;;;;;;;18.50;36.20;;;;;;490982;240;1115;-54
2021/01/14 10:07:19;;;;;;;;;;;18.50;36.10;;;;;;490998;240;1178;-53
2021/01/14 10:09:19;;;;;;;;;;;18.50;36.10;;;;;;490893;242;2065;-53
2021/01/14 10:11:20;;;;;;;;;;;18.60;36.10;;;;;;490851;240;1060;-53
2021/01/14 10:13:22;;;;;;;;;;;18.60;36.10;;;;;;490800;240;1058;-53
2021/01/14 10:15:23;;;;;;;;;;;18.60;36.00;;;;;;490718;240;1101;-54
2021/01/14 10:17:24;;;;;;;;;;;18.60;36.00;;;;;;490678;240;2130;-54
2021/01/14 10:19:26;;;;;;;;;;;18.60;36.00;;;;;;490587;240;1256;-53
2021/01/14 10:21:27;;;;;;;;;;;18.60;35.90;;;;;;490649;240;1123;-53
2021/01/14 10:23:28;;;;;;;;;;;18.60;35.90;;;;;;490937;240;1043;-53
2021/01/14 10:25:30;;;;;;;;;;;18.70;35.90;;;;;;490852;240;1115;-53
2021/01/14 10:27:31;;;;;;;;;;;18.70;35.90;;;;;;490714;241;1259;-53
2021/01/14 10:29:38;;;;;;;;;;;18.70;35.90;;;;;;490810;240;1054;-54
2021/01/14 10:31:34;;;;;;;;;;;18.70;35.80;;;;;;490988;241;2419;-54
2021/01/14 10:33:35;;;;;;;;;;;18.70;35.80;;;;;;490841;241;1199;-53
2021/01/14 10:35:36;;;;;;;;;;;18.70;35.80;;;;;;490999;240;1105;-54
2021/01/14 10:37:38;;;;;;;;;;;18.80;35.80;;;;;;490825;240;2184;-54
2021/01/14 10:39:39;;;;;;;;;;;18.80;35.70;;;;;;490750;240;1076;-54
2021/01/14 10:41:41;;;;;;;;;;;18.80;35.70;;;;;;490729;240;1085;-53
2021/01/14 10:43:42;;;;;;;;;;;18.80;35.70;;;;;;490757;240;1186;-53
2021/01/14 10:45:44;;;;;;;;;;;18.80;35.70;;;;;;490757;240;1037;-54
2021/01/14 10:47:45;;;;;;;;;;;18.80;35.60;;;;;;490741;240;1219;-54
2021/01/14 10:49:46;;;;;;;;;;;18.90;34.40;;;;;;490830;240;989;-54
2021/01/14 10:51:49;;;;;;;;;;;18.90;35.60;;;;;;490841;240;1246;-53
2021/01/14 10:53:51;;;;;;;;;;;18.90;35.60;;;;;;490746;240;1131;-54
2021/01/14 10:55:52;;;;;;;;;;;18.90;35.60;;;;;;490736;240;2192;-54
2021/01/14 10:57:53;;;;;;;;;;;18.90;35.60;;;;;;490796;240;1234;-54
2021/01/14 10:59:54;;;;;;;;;;;18.90;35.50;;;;;;490709;240;1040;-54
2021/01/14 11:01:55;;;;;;;;;;;18.90;34.20;;;;;;490607;240;1202;-53
2021/01/14 11:03:57;;;;;;;;;;;18.90;35.50;;;;;;490752;240;1184;-54
2021/01/14 11:05:59;;;;;;;;;;;19.00;35.50;;;;;;490746;240;1124;-53
2021/01/14 11:08:00;;;;;;;;;;;19.00;35.50;;;;;;490748;240;1059;-54
2021/01/14 11:10:01;;;;;;;;;;;19.00;35.50;;;;;;490884;240;1088;-53
2021/01/14 11:12:02;;;;;;;;;;;19.00;35.50;;;;;;490876;240;1048;-54
2021/01/14 11:14:04;;;;;;;;;;;19.00;35.50;;;;;;491013;240;1016;-53
2021/01/14 11:16:05;;;;;;;;;;;19.00;35.40;;;;;;490933;240;2128;-54
2021/01/14 11:18:06;;;;;;;;;;;19.00;34.10;;;;;;490884;240;1319;-54
2021/01/14 11:20:07;;;;;;;;;;;19.00;35.40;;;;;;490987;240;1184;-54
2021/01/14 11:22:09;;;;;;;;;;;19.00;35.40;;;;;;490990;240;1078;-53
2021/01/14 11:24:10;;;;;;;;;;;19.00;35.40;;;;;;491053;240;1079;-53
2021/01/14 11:26:12;;;;;;;;;;;19.10;35.40;;;;;;491009;240;988;-54
2021/01/14 11:28:13;;;;;;;;;;;19.10;35.40;;;;;;490855;240;1145;-53
2021/01/14 11:30:14;;;;;;;;;;;19.10;34.00;;;;;;490714;240;1297;-54
2021/01/14 11:32:15;;;;;;;;;;;19.10;35.40;;;;;;490765;240;1163;-53
2021/01/14 11:34:17;;;;;;;;;;;19.10;35.30;;;;;;491011;240;1210;-54
2021/01/14 11:36:20;;;;;;;;;;;19.10;35.30;;;;;;490820;240;2200;-54
2021/01/14 11:38:20;;;;;;;;;;;19.10;35.30;;;;;;490903;240;1334;-54
2021/01/14 11:40:21;;;;;;;;;;;19.10;35.20;;;;;;490825;240;1101;-53
2021/01/14 11:42:22;;;;;;;;;;;19.20;35.30;;;;;;490714;240;1379;-54
2021/01/14 11:44:24;;;;;;;;;;;19.20;35.30;;;;;;491028;240;1240;-53
2021/01/14 11:48:53;;;;;;;;;;;19.20;35.30;;;;;;490782;242;1330;-53
2021/01/14 11:50:55;;;;;;;;;;;19.20;35.20;;;;;;490848;240;1082;-53
2021/01/14 11:52:56;;;;;;;;;;;19.20;35.20;;;;;;491165;240;1102;-54
2021/01/14 11:54:57;;;;;;;;;;;19.20;35.20;;;;;;490875;240;994;-54
2021/01/14 11:57:02;;;;;;;;;;;19.20;35.20;;;;;;491242;240;2249;-53
2021/01/14 11:59:03;;;;;;;;;;;19.20;35.20;;;;;;490929;240;1096;-53
2021/01/14 12:01:04;;;;;;;;;;;19.30;33.90;;;;;;490979;240;1085;-53